createdAt,value
2018-07-14T00:01:21.775Z,77.63
2018-07-14T00:03:50.975Z,76.65
2018-07-14T00:06:20.244Z,76.30
2018-07-14T00:08:49.483Z,75.30
2018-07-14T00:11:18.895Z,76.35
2018-07-14T00:13:48.071Z,75.96
2018-07-14T00:16:17.276Z,74.79
2018-07-14T00:18:46.466Z,73.54
2018-07-14T00:21:15.652Z,72.80
2018-07-14T00:23:45.292Z,73.05
2018-07-14T00:26:18.182Z,72.99
2018-07-14T00:28:47.668Z,71.57
2018-07-14T00:31:17.126Z,71.09
2018-07-14T00:33:46.521Z,72.05
2018-07-14T00:36:15.731Z,71.76
2018-07-14T00:38:44.915Z,71.45
2018-07-14T00:41:14.128Z,71.84
2018-07-14T00:43:43.335Z,71.52
2018-07-14T00:46:12.847Z,72.34
2018-07-14T00:48:42.059Z,72.01
2018-07-14T00:51:11.251Z,73.05
2018-07-14T00:53:40.465Z,72.95
2018-07-14T00:56:09.666Z,73.67
2018-07-14T00:58:38.878Z,74.94
2018-07-14T01:01:08.286Z,75.20
2018-07-14T01:03:37.495Z,75.77
2018-07-14T01:06:07.326Z,75.93
2018-07-14T01:08:36.516Z,75.96
2018-07-14T01:11:05.704Z,76.36
2018-07-14T01:13:35.428Z,76.43
2018-07-14T01:16:04.882Z,76.46
2018-07-14T01:18:34.355Z,76.78
2018-07-14T01:21:03.547Z,77.18
2018-07-14T01:23:32.748Z,76.42
2018-07-14T01:26:01.938Z,76.42
2018-07-14T01:28:31.131Z,76.33
2018-07-14T01:31:00.355Z,76.93
2018-07-14T01:33:29.575Z,77.14
2018-07-14T01:35:58.767Z,77.17
2018-07-14T01:38:27.962Z,77.14
2018-07-14T01:40:57.691Z,77.98
2018-07-14T01:43:26.891Z,77.41
2018-07-14T01:45:56.062Z,78.08
2018-07-14T01:48:25.256Z,77.98
2018-07-14T01:50:54.437Z,78.07
2018-07-14T01:53:23.911Z,78.03
2018-07-14T01:55:53.322Z,77.86
2018-07-14T01:58:22.852Z,78.23
2018-07-14T02:00:52.049Z,78.34
2018-07-14T02:03:21.382Z,78.13
2018-07-14T02:05:50.824Z,78.83
2018-07-14T02:08:20.031Z,79.34
2018-07-14T02:10:49.224Z,79.20
2018-07-14T02:13:18.435Z,78.34
2018-07-14T02:15:47.748Z,77.83
2018-07-14T02:18:16.938Z,78.37
2018-07-14T02:20:46.403Z,78.63
2018-07-14T02:23:15.883Z,78.93
2018-07-14T02:25:45.515Z,79.21
2018-07-14T02:28:14.939Z,78.66
2018-07-14T02:30:44.341Z,77.38
2018-07-14T02:33:13.687Z,79.02
2018-07-14T02:35:42.945Z,78.46
2018-07-14T02:38:12.131Z,78.02
2018-07-14T02:40:41.318Z,77.66
2018-07-14T02:43:10.508Z,78.40
2018-07-14T02:45:39.940Z,78.56
2018-07-14T02:48:09.141Z,78.81
2018-07-14T02:50:38.384Z,78.10
2018-07-14T02:53:07.741Z,77.90
2018-07-14T02:55:36.947Z,77.13
2018-07-14T02:58:06.402Z,77.12
2018-07-14T03:00:35.948Z,77.62
2018-07-14T03:03:05.260Z,77.50
2018-07-14T03:05:34.447Z,78.99
2018-07-14T03:08:03.929Z,78.69
2018-07-14T03:10:33.407Z,79.28
2018-07-14T03:13:02.609Z,79.55
2018-07-14T03:15:31.803Z,80.04
2018-07-14T03:18:01.024Z,80.00
2018-07-14T03:20:30.242Z,79.42
2018-07-14T03:22:59.752Z,79.69
2018-07-14T03:25:28.939Z,78.79
2018-07-14T03:27:58.439Z,79.13
2018-07-14T03:30:27.927Z,80.43
2018-07-14T03:32:57.123Z,81.06
2018-07-14T03:35:26.307Z,81.04
2018-07-14T03:37:56.020Z,80.00
2018-07-14T03:40:25.199Z,79.24
2018-07-14T03:42:54.440Z,79.49
2018-07-14T03:45:23.743Z,80.06
2018-07-14T03:47:52.939Z,80.08
2018-07-14T03:50:22.108Z,79.76
2018-07-14T03:52:51.356Z,79.00
2018-07-14T03:55:20.523Z,78.87
2018-07-14T03:57:49.835Z,79.17
2018-07-14T04:00:19.021Z,79.30
2018-07-14T04:02:48.466Z,78.79
2018-07-14T04:05:17.658Z,78.63
2018-07-14T04:07:46.859Z,78.75
2018-07-14T04:10:16.063Z,79.33
2018-07-14T04:12:45.255Z,79.18
2018-07-14T04:15:14.479Z,78.82
2018-07-14T04:17:43.799Z,79.32
2018-07-14T04:20:12.989Z,79.30
2018-07-14T04:22:42.454Z,79.83
2018-07-14T04:25:12.337Z,79.99
2018-07-14T04:27:41.586Z,79.71
2018-07-14T04:30:10.791Z,79.08
2018-07-14T04:32:39.979Z,78.78
2018-07-14T04:35:09.193Z,78.75
2018-07-14T04:37:38.375Z,79.05
2018-07-14T04:40:07.707Z,78.61
2018-07-14T04:42:36.968Z,78.45
2018-07-14T04:45:06.511Z,77.93
2018-07-14T04:47:35.705Z,78.12
2018-07-14T04:50:06.056Z,77.24
2018-07-14T04:52:35.947Z,77.70
2018-07-14T04:55:05.787Z,76.99
2018-07-14T04:57:35.407Z,77.24
2018-07-14T05:00:04.712Z,76.33
2018-07-14T05:02:34.018Z,76.48
2018-07-14T05:05:03.242Z,77.34
2018-07-14T05:07:32.500Z,77.12
2018-07-14T05:10:01.708Z,76.67
2018-07-14T05:12:30.892Z,76.29
2018-07-14T05:15:00.122Z,75.93
2018-07-14T05:17:29.324Z,74.33
2018-07-14T05:19:58.510Z,73.89
2018-07-14T05:22:27.908Z,72.77
2018-07-14T05:24:57.128Z,72.79
2018-07-14T05:27:26.771Z,72.57
2018-07-14T05:29:56.004Z,71.61
2018-07-14T05:32:25.207Z,71.73
2018-07-14T05:34:54.424Z,72.52
2018-07-14T05:37:23.599Z,71.24
2018-07-14T05:39:52.879Z,70.87
2018-07-14T05:42:22.078Z,69.49
2018-07-14T05:44:51.283Z,69.78
2018-07-14T05:47:20.494Z,67.91
2018-07-14T05:49:50.007Z,68.78
2018-07-14T05:52:19.212Z,68.32
2018-07-14T05:54:48.814Z,66.49
2018-07-14T05:57:18.007Z,67.11
2018-07-14T05:59:47.234Z,65.92
2018-07-14T06:02:16.411Z,64.54
2018-07-14T06:04:45.727Z,62.85
2018-07-14T06:07:14.897Z,64.17
2018-07-14T06:09:44.079Z,59.23
2018-07-14T06:12:13.528Z,55.97
2018-07-14T06:14:42.748Z,53.28
2018-07-14T06:17:11.963Z,50.34
2018-07-14T06:19:41.418Z,49.09
2018-07-14T06:22:10.792Z,50.32
2018-07-14T06:24:39.985Z,51.43
2018-07-14T06:27:09.475Z,52.80
2018-07-14T06:29:38.667Z,53.47
2018-07-14T06:32:07.912Z,55.08
2018-07-14T06:34:37.043Z,53.18
2018-07-14T06:37:06.251Z,54.25
2018-07-14T06:39:35.434Z,53.48
2018-07-14T06:42:04.647Z,53.37
2018-07-14T06:44:33.842Z,49.17
2018-07-14T06:47:03.011Z,46.14
2018-07-14T06:49:32.203Z,45.25
2018-07-14T06:52:01.487Z,44.20
2018-07-14T06:54:31.074Z,37.39
2018-07-14T06:57:00.301Z,37.77
2018-07-14T06:59:29.531Z,35.56
2018-07-14T07:01:58.731Z,35.06
2018-07-14T07:04:28.028Z,34.65
2018-07-14T07:06:57.232Z,31.36
2018-07-14T07:09:26.497Z,32.87
2018-07-14T07:11:55.723Z,31.78
2018-07-14T07:14:24.911Z,32.38
2018-07-14T07:16:54.107Z,31.62
2018-07-14T07:19:23.299Z,32.81
2018-07-14T07:21:52.484Z,32.21
2018-07-14T07:24:21.678Z,31.00
2018-07-14T07:26:51.223Z,30.74
2018-07-14T07:29:20.419Z,29.64
2018-07-14T07:31:49.596Z,29.71
2018-07-14T07:34:19.488Z,26.90
2018-07-14T07:36:48.659Z,28.35
2018-07-14T07:39:17.870Z,30.82
2018-07-14T07:41:47.062Z,29.64
2018-07-14T07:44:16.516Z,28.90
2018-07-14T07:46:48.426Z,26.36
2018-07-14T07:49:17.620Z,27.68
2018-07-14T07:51:46.818Z,29.33
2018-07-14T07:54:16.004Z,29.31
2018-07-14T07:56:45.196Z,26.47
2018-07-14T07:59:14.362Z,23.22
2018-07-14T08:01:43.582Z,26.94
2018-07-14T08:04:12.751Z,25.55
2018-07-14T08:06:41.971Z,26.99
2018-07-14T08:09:11.683Z,29.11
2018-07-14T08:11:40.895Z,25.91
2018-07-14T08:14:10.406Z,25.77
2018-07-14T08:16:39.620Z,25.09
2018-07-14T08:19:08.830Z,23.92
2018-07-14T08:21:38.175Z,23.90
2018-07-14T08:24:07.416Z,22.44
2018-07-14T08:26:36.614Z,23.94
2018-07-14T08:29:05.827Z,24.24
2018-07-14T08:31:35.044Z,23.85
2018-07-14T08:34:04.567Z,22.65
2018-07-14T08:36:33.775Z,21.80
2018-07-14T08:39:04.649Z,23.09
2018-07-14T08:41:34.088Z,21.66
2018-07-14T08:44:03.344Z,24.88
2018-07-14T08:46:34.683Z,23.87
2018-07-14T08:49:08.474Z,22.82
2018-07-14T08:51:39.049Z,21.94
2018-07-14T08:54:13.127Z,21.76
2018-07-14T08:56:43.991Z,22.28
2018-07-14T08:59:15.093Z,21.26
2018-07-14T09:01:47.101Z,20.68
2018-07-14T09:04:17.458Z,19.99
2018-07-14T09:06:48.505Z,19.43
2018-07-14T09:09:18.736Z,20.36
2018-07-14T09:11:49.414Z,21.17
2018-07-14T09:14:20.372Z,23.27
2018-07-14T09:16:49.844Z,21.06
2018-07-14T09:19:19.049Z,21.94
2018-07-14T09:21:48.264Z,21.66
2018-07-14T09:24:17.855Z,23.00
2018-07-14T09:26:47.054Z,21.51
2018-07-14T09:29:16.271Z,21.15
2018-07-14T09:31:45.827Z,20.14
2018-07-14T09:34:14.999Z,20.97
2018-07-14T09:36:44.227Z,22.21
2018-07-14T09:39:13.400Z,21.13
2018-07-14T09:41:42.595Z,20.11
2018-07-14T09:44:11.773Z,18.81
2018-07-14T09:46:41.874Z,18.87
2018-07-14T09:49:11.071Z,19.01
2018-07-14T09:51:40.443Z,19.59
2018-07-14T09:54:09.613Z,17.88
2018-07-14T09:56:38.829Z,18.25
2018-07-14T09:59:08.127Z,17.06
2018-07-14T10:01:37.351Z,16.74
2018-07-14T10:04:06.565Z,17.40
2018-07-14T10:06:35.779Z,19.28
2018-07-14T10:09:06.144Z,20.82
2018-07-14T10:11:35.493Z,20.12
2018-07-14T10:14:04.698Z,20.20
2018-07-14T10:16:33.891Z,19.82
2018-07-14T10:19:03.112Z,21.79
2018-07-14T10:21:32.316Z,21.37
2018-07-14T10:24:01.595Z,20.62
2018-07-14T10:26:31.808Z,19.21
2018-07-14T10:29:01.099Z,17.80
2018-07-14T10:31:30.331Z,18.42
2018-07-14T10:33:59.579Z,16.52
2018-07-14T10:36:28.708Z,17.67
2018-07-14T10:38:58.247Z,18.55
2018-07-14T10:41:27.448Z,18.17
2018-07-14T10:43:58.722Z,18.21
2018-07-14T10:46:28.278Z,16.00
2018-07-14T10:48:57.476Z,16.84
2018-07-14T10:51:26.682Z,16.26
2018-07-14T10:53:56.145Z,15.96
2018-07-14T10:56:25.431Z,15.33
2018-07-14T10:58:54.623Z,16.65
2018-07-14T11:01:23.835Z,20.09
2018-07-14T11:03:53.008Z,23.40
2018-07-14T11:06:22.409Z,24.82
2018-07-14T11:08:51.580Z,26.06
2018-07-14T11:11:20.940Z,28.04
2018-07-14T11:13:50.274Z,27.51
2018-07-14T11:16:19.492Z,24.37
2018-07-14T11:18:49.407Z,20.31
2018-07-14T11:21:18.908Z,19.47
2018-07-14T11:23:48.175Z,17.53
2018-07-14T11:26:17.297Z,18.73
2018-07-14T11:28:46.705Z,17.35
2018-07-14T11:31:15.969Z,16.98
2018-07-14T11:33:45.879Z,16.64
2018-07-14T11:36:15.191Z,17.47
2018-07-14T11:38:44.396Z,16.41
2018-07-14T11:41:13.586Z,16.76
2018-07-14T11:43:42.777Z,18.68
2018-07-14T11:46:11.975Z,18.45
2018-07-14T11:48:41.299Z,16.75
2018-07-14T11:51:10.505Z,17.32
2018-07-14T11:53:40.092Z,17.88
2018-07-14T11:56:09.303Z,17.11
2018-07-14T11:58:38.511Z,17.86
2018-07-14T12:01:07.876Z,21.44
2018-07-14T12:03:37.364Z,22.57
2018-07-14T12:06:06.545Z,22.97
2018-07-14T12:08:35.735Z,23.68
2018-07-14T12:11:06.256Z,24.81
2018-07-14T12:13:35.451Z,26.11
2018-07-14T12:16:04.963Z,27.79
2018-07-14T12:18:34.482Z,26.38
2018-07-14T12:21:04.052Z,26.22
2018-07-14T12:23:33.907Z,21.90
2018-07-14T12:26:03.117Z,24.34
2018-07-14T12:28:32.354Z,23.51
2018-07-14T12:31:01.991Z,21.70
2018-07-14T12:33:31.564Z,18.98
2018-07-14T12:36:00.847Z,16.36
2018-07-14T12:38:30.091Z,15.77
2018-07-14T12:40:59.984Z,15.99
2018-07-14T12:43:29.568Z,16.57
2018-07-14T12:45:59.055Z,16.27
2018-07-14T12:48:28.632Z,17.67
2018-07-14T12:50:58.080Z,16.86
2018-07-14T12:53:27.437Z,15.72
2018-07-14T12:55:56.624Z,15.57
2018-07-14T12:58:25.822Z,16.90
2018-07-14T13:00:55.028Z,16.83
2018-07-14T13:03:24.260Z,15.73
2018-07-14T13:05:53.471Z,17.81
2018-07-14T13:08:22.670Z,17.93
2018-07-14T13:10:51.844Z,17.10
2018-07-14T13:13:21.266Z,17.70
2018-07-14T13:15:50.453Z,16.85
2018-07-14T13:18:19.659Z,16.96
2018-07-14T13:20:48.863Z,17.06
2018-07-14T13:23:18.086Z,19.04
2018-07-14T13:25:47.802Z,18.88
2018-07-14T13:28:16.998Z,21.44
2018-07-14T13:30:46.568Z,21.08
2018-07-14T13:33:15.770Z,21.88
2018-07-14T13:35:44.956Z,21.92
2018-07-14T13:38:14.171Z,19.25
2018-07-14T13:40:43.535Z,20.63
2018-07-14T13:43:12.846Z,18.66
2018-07-14T13:45:42.971Z,17.62
2018-07-14T13:48:12.203Z,17.85
2018-07-14T13:50:41.743Z,18.28
2018-07-14T13:53:10.955Z,20.51
2018-07-14T13:55:40.186Z,19.58
2018-07-14T13:58:09.399Z,17.26
2018-07-14T14:00:38.579Z,18.76
2018-07-14T14:03:07.842Z,20.01
2018-07-14T14:05:37.039Z,19.48
2018-07-14T14:08:06.628Z,17.85
2018-07-14T14:10:36.441Z,18.82
2018-07-14T14:13:05.959Z,18.54
2018-07-14T14:15:35.172Z,19.37
2018-07-14T14:18:04.787Z,18.32
2018-07-14T14:20:34.195Z,18.92
2018-07-14T14:23:03.708Z,20.11
2018-07-14T14:25:32.883Z,22.31
2018-07-14T14:28:02.119Z,24.22
2018-07-14T14:30:31.296Z,25.51
2018-07-14T14:33:00.628Z,24.79
2018-07-14T14:35:29.918Z,22.95
2018-07-14T14:37:59.151Z,22.48
2018-07-14T14:40:28.619Z,21.37
2018-07-14T14:42:57.964Z,22.24
2018-07-14T14:45:28.312Z,24.06
2018-07-14T14:47:57.539Z,23.33
2018-07-14T14:50:26.751Z,22.90
2018-07-14T14:52:55.930Z,23.42
2018-07-14T14:55:25.119Z,24.51
2018-07-14T14:57:54.547Z,24.67
2018-07-14T15:00:23.738Z,23.97
2018-07-14T15:02:53.159Z,21.97
2018-07-14T15:05:22.987Z,21.82
2018-07-14T15:07:52.791Z,21.66
2018-07-14T15:10:22.400Z,22.73
2018-07-14T15:12:51.620Z,23.05
2018-07-14T15:15:20.815Z,25.11
2018-07-14T15:17:50.011Z,24.31
2018-07-14T15:20:19.203Z,25.37
2018-07-14T15:22:48.662Z,25.40
2018-07-14T15:25:17.879Z,24.96
2018-07-14T15:27:47.095Z,25.92
2018-07-14T15:30:16.319Z,26.59
2018-07-14T15:32:45.542Z,27.32
2018-07-14T15:35:14.707Z,27.41
2018-07-14T15:37:44.023Z,28.23
2018-07-14T15:40:13.347Z,27.10
2018-07-14T15:42:43.074Z,28.39
2018-07-14T15:45:12.603Z,29.63
2018-07-14T15:47:41.763Z,29.74
2018-07-14T15:50:11.016Z,30.02
2018-07-14T15:52:40.911Z,30.50
2018-07-14T15:55:10.227Z,31.29
2018-07-14T15:57:39.610Z,30.46
2018-07-14T16:00:09.027Z,31.85
2018-07-14T16:02:38.190Z,37.19
2018-07-14T16:05:08.551Z,37.46
2018-07-14T16:07:41.104Z,38.19
2018-07-14T16:10:11.982Z,41.85
2018-07-14T16:12:42.375Z,42.38
2018-07-14T16:15:13.066Z,47.42
2018-07-14T16:17:45.490Z,50.01
2018-07-14T16:20:16.195Z,53.24
2018-07-14T16:22:45.402Z,58.83
2018-07-14T16:25:14.610Z,59.08
2018-07-14T16:27:43.795Z,57.97
2018-07-14T16:30:13.379Z,62.89
2018-07-14T16:32:42.571Z,57.79
2018-07-14T16:35:13.073Z,63.24
2018-07-14T16:37:42.622Z,60.33
2018-07-14T16:40:11.857Z,62.58
2018-07-14T16:42:41.047Z,63.05
2018-07-14T16:45:10.264Z,63.27
2018-07-14T16:47:39.418Z,61.88
2018-07-14T16:50:08.735Z,59.88
2018-07-14T16:52:37.860Z,59.68
2018-07-14T16:55:07.188Z,55.39
2018-07-14T16:57:36.479Z,54.64
2018-07-14T17:00:05.696Z,52.30
2018-07-14T17:02:35.424Z,53.13
2018-07-14T17:05:04.689Z,53.35
2018-07-14T17:07:33.853Z,52.70
2018-07-14T17:10:03.038Z,53.60
2018-07-14T17:12:32.199Z,50.59
2018-07-14T17:15:01.804Z,53.50
2018-07-14T17:17:30.951Z,53.27
2018-07-14T17:20:00.141Z,51.02
2018-07-14T17:22:30.531Z,51.71
2018-07-14T17:25:00.461Z,52.23
2018-07-14T17:27:30.035Z,50.03
2018-07-14T17:29:59.203Z,50.46
2018-07-14T17:32:28.400Z,53.79
2018-07-14T17:34:57.695Z,53.77
2018-07-14T17:37:26.871Z,53.45
2018-07-14T17:39:56.097Z,53.04
2018-07-14T17:42:25.298Z,53.64
2018-07-14T17:44:54.516Z,53.00
2018-07-14T17:47:23.687Z,53.37
2018-07-14T17:49:54.967Z,54.73
2018-07-14T17:52:25.944Z,53.99
2018-07-14T17:54:56.213Z,52.96
2018-07-14T17:57:26.043Z,53.50
2018-07-14T17:59:55.481Z,54.04
2018-07-14T18:02:27.087Z,51.58
2018-07-14T18:04:57.564Z,52.69
2018-07-14T18:07:27.927Z,53.83
2018-07-14T18:09:58.643Z,54.31
2018-07-14T18:12:28.967Z,54.56
2018-07-14T18:14:59.086Z,52.94
2018-07-14T18:17:31.693Z,55.65
2018-07-14T18:20:01.871Z,55.91
2018-07-14T18:22:32.140Z,56.17
2018-07-14T18:25:01.895Z,57.61
2018-07-14T18:27:32.091Z,56.99
2018-07-14T18:30:02.535Z,57.79
2018-07-14T18:32:31.696Z,57.63
2018-07-14T18:35:00.887Z,58.03
2018-07-14T18:37:30.048Z,56.85
2018-07-14T18:39:59.874Z,60.67
2018-07-14T18:42:29.131Z,60.33
2018-07-14T18:44:58.335Z,60.90
2018-07-14T18:47:29.075Z,62.89
2018-07-14T18:49:59.084Z,62.06
2018-07-14T18:52:29.403Z,60.98
2018-07-14T18:54:59.530Z,59.51
2018-07-14T18:57:29.253Z,60.87
2018-07-14T18:59:59.950Z,59.60
2018-07-14T19:02:29.896Z,62.04
2018-07-14T19:05:00.198Z,62.51
2018-07-14T19:07:31.731Z,64.31
2018-07-14T19:10:01.570Z,64.32
2018-07-14T19:12:31.658Z,63.81
2018-07-14T19:15:01.542Z,62.76
2018-07-14T19:17:31.535Z,62.40
2018-07-14T19:20:00.724Z,62.55
2018-07-14T19:22:31.394Z,63.20
2018-07-14T19:25:02.288Z,61.84
2018-07-14T19:27:31.571Z,63.54
2018-07-14T19:30:00.747Z,63.59
2018-07-14T19:32:30.011Z,64.10
2018-07-14T19:34:59.285Z,65.72
2018-07-14T19:37:28.411Z,67.71
2018-07-14T19:39:57.604Z,67.32
2018-07-14T19:42:27.778Z,67.60
2018-07-14T19:44:58.486Z,66.39
2018-07-14T19:47:29.319Z,67.69
2018-07-14T19:49:59.795Z,67.67
2018-07-14T19:52:30.425Z,69.21
2018-07-14T19:55:01.199Z,68.92
2018-07-14T19:57:32.022Z,71.08
2018-07-14T20:00:02.708Z,70.30
2018-07-14T20:02:33.645Z,71.13
2018-07-14T20:05:05.446Z,70.70
2018-07-14T20:07:35.504Z,71.82
2018-07-14T20:10:05.396Z,72.68
2018-07-14T20:12:35.003Z,71.67
2018-07-14T20:15:05.928Z,72.55
2018-07-14T20:17:35.215Z,70.60
2018-07-14T20:20:04.508Z,71.94
2018-07-14T20:22:33.676Z,70.61
2018-07-14T20:25:02.985Z,71.67
2018-07-14T20:27:32.252Z,72.73
2018-07-14T20:30:01.478Z,72.76
2018-07-14T20:32:32.797Z,72.22
2018-07-14T20:35:03.901Z,72.56
2018-07-14T20:37:33.999Z,71.46
2018-07-14T20:40:05.323Z,71.47
2018-07-14T20:42:35.767Z,70.70
2018-07-14T20:45:06.947Z,71.90
2018-07-14T20:47:37.444Z,73.13
2018-07-14T20:50:08.029Z,72.83
2018-07-14T20:52:37.319Z,73.11
2018-07-14T20:55:06.847Z,73.33
2018-07-14T20:57:36.029Z,72.54
2018-07-14T21:00:05.313Z,73.41
2018-07-14T21:02:34.479Z,72.94
2018-07-14T21:05:03.792Z,72.76
2018-07-14T21:07:32.975Z,74.36
2018-07-14T21:10:02.248Z,73.44
2018-07-14T21:12:31.822Z,73.48
2018-07-14T21:15:02.401Z,73.23
2018-07-14T21:17:32.706Z,73.91
2018-07-14T21:20:03.159Z,74.78
2018-07-14T21:22:34.453Z,73.15
2018-07-14T21:25:04.973Z,72.77
2018-07-14T21:27:35.990Z,73.76
2018-07-14T21:30:06.557Z,73.99
2018-07-14T21:32:36.764Z,74.87
2018-07-14T21:35:08.254Z,74.69
2018-07-14T21:37:38.892Z,73.98
2018-07-14T21:40:10.094Z,75.13
2018-07-14T21:42:41.165Z,74.14
2018-07-14T21:45:12.039Z,74.86
2018-07-14T21:47:43.102Z,73.94
2018-07-14T21:50:14.486Z,74.57
2018-07-14T21:52:46.578Z,73.96
2018-07-14T21:55:17.985Z,73.39
2018-07-14T21:57:47.522Z,73.07
2018-07-14T22:00:32.805Z,74.84
2018-07-14T22:03:04.095Z,74.60
2018-07-14T22:05:33.394Z,74.43
2018-07-14T22:08:04.471Z,74.46
2018-07-14T22:10:34.850Z,74.77
2018-07-14T22:13:04.943Z,74.97
2018-07-14T22:15:35.481Z,75.01
2018-07-14T22:18:06.316Z,74.62
2018-07-14T22:20:37.545Z,75.01
2018-07-14T22:23:08.922Z,74.83
2018-07-14T22:25:40.250Z,76.04
2018-07-14T22:28:10.702Z,74.58
2018-07-14T22:30:41.642Z,75.23
2018-07-14T22:33:12.131Z,75.27
2018-07-14T22:35:43.391Z,75.91
2018-07-14T22:38:13.778Z,75.64
2018-07-14T22:40:46.054Z,76.48
2018-07-14T22:43:16.551Z,76.12
2018-07-14T22:45:48.045Z,75.87
2018-07-14T22:48:18.608Z,76.83
2018-07-14T22:50:48.023Z,76.11
2018-07-14T22:53:17.224Z,77.17
2018-07-14T22:55:46.499Z,76.46
2018-07-14T22:58:15.706Z,76.79
2018-07-14T23:00:44.895Z,76.98
2018-07-14T23:03:14.571Z,76.52
2018-07-14T23:05:43.728Z,76.74
2018-07-14T23:08:12.947Z,76.20
2018-07-14T23:10:42.120Z,76.24
2018-07-14T23:13:11.311Z,77.06
2018-07-14T23:15:40.490Z,77.20
2018-07-14T23:18:09.675Z,77.95
2018-07-14T23:20:38.880Z,77.33
2018-07-14T23:23:08.067Z,77.28
2018-07-14T23:25:37.244Z,77.00
2018-07-14T23:28:06.683Z,76.73
2018-07-14T23:30:36.366Z,76.69
2018-07-14T23:33:05.549Z,77.04
2018-07-14T23:35:34.721Z,76.64
2018-07-14T23:38:03.951Z,76.47
2018-07-14T23:40:33.124Z,76.75
2018-07-14T23:43:02.296Z,77.77
2018-07-14T23:45:31.492Z,77.91
2018-07-14T23:48:00.683Z,77.72
2018-07-14T23:50:29.843Z,77.62
2018-07-14T23:52:59.033Z,78.21
2018-07-14T23:55:28.211Z,77.93
2018-07-14T23:57:57.427Z,77.44
